Time;durP1;ratioP1;P1;durP2;ratioP2;P2;SDS_P1;SDS_P2;PMS_P1;PMS_P2;Temp;Humidity;BMP_temperature;BMP_pressure;BME280_temperature;BME280_humidity;BME280_pressure;Samples;Min_cycle;Max_cycle;Signal;HPM_P1;HPM_P2
2024/01/28 00:01:19;;;;;;;3.05;1.75;;;;;;;;;;5035337;28;20068;-75
2024/01/28 00:03:47;;;;;;;0.43;0.43;;;;;;;;;;5040579;28;20045;-75
2024/01/28 00:06:15;;;;;;;0.32;0.30;;;;;;;;;;5033371;28;20046;-75
2024/01/28 00:08:43;;;;;;;0.93;0.90;;;;;;;;;;5033518;28;20064;-75
2024/01/28 00:11:11;;;;;;;1.35;1.25;;;;;;;;;;5033290;28;20052;-75
2024/01/28 00:13:38;;;;;;;0.38;0.05;;;;;;;;;;5033274;28;20037;-75
2024/01/28 00:16:06;;;;;;;2.22;2.13;;;;;;;;;;5032942;28;20124;-75
2024/01/28 00:18:34;;;;;;;0.17;0.17;;;;;;;;;;5033048;28;20042;-75
2024/01/28 00:21:04;;;;;;;1.00;1.00;;;;;;;;;;5033420;28;20068;-75
2024/01/28 00:23:32;;;;;;;0.85;0.85;;;;;;;;;;5032963;28;20429;-75
2024/01/28 00:26:01;;;;;;;0.13;0.13;;;;;;;;;;5033105;28;20071;-75
2024/01/28 00:28:29;;;;;;;0.00;0.00;;;;;;;;;;5033351;28;20045;-75
2024/01/28 00:30:57;;;;;;;0.00;0.00;;;;;;;;;;5031615;28;20037;-75
2024/01/28 00:33:24;;;;;;;0.00;0.00;;;;;;;;;;5032936;28;20450;-75
2024/01/28 00:35:52;;;;;;;0.35;0.35;;;;;;;;;;5031672;28;20049;-75
2024/01/28 00:38:20;;;;;;;0.55;0.55;;;;;;;;;;5032899;28;20048;-75
2024/01/28 00:40:48;;;;;;;0.05;0.05;;;;;;;;;;5032801;28;20052;-75
2024/01/28 00:43:16;;;;;;;1.50;1.45;;;;;;;;;;5032754;28;20056;-75
2024/01/28 00:45:43;;;;;;;1.00;1.00;;;;;;;;;;5032702;28;20075;-75
2024/01/28 00:48:11;;;;;;;0.40;0.40;;;;;;;;;;5033085;28;20493;-75
2024/01/28 00:50:39;;;;;;;0.00;0.00;;;;;;;;;;5031701;28;20050;-75
2024/01/28 00:53:06;;;;;;;0.68;0.52;;;;;;;;;;5032501;28;20501;-75
2024/01/28 00:55:34;;;;;;;2.83;1.70;;;;;;;;;;5032536;28;20072;-73
2024/01/28 00:58:02;;;;;;;1.55;0.65;;;;;;;;;;5030964;28;20045;-73
2024/01/28 01:00:30;;;;;;;1.48;1.38;;;;;;;;;;5032616;28;20050;-73
2024/01/28 01:02:59;;;;;;;3.72;1.48;;;;;;;;;;5032518;28;20125;-74
2024/01/28 01:05:26;;;;;;;0.00;0.00;;;;;;;;;;5032711;28;20093;-73
2024/01/28 01:07:54;;;;;;;0.43;0.43;;;;;;;;;;5031096;28;20046;-74
2024/01/28 01:10:25;;;;;;;0.13;0.13;;;;;;;;;;5032660;28;20121;-73
2024/01/28 01:12:53;;;;;;;0.00;0.00;;;;;;;;;;5032476;28;20446;-73
2024/01/28 01:15:20;;;;;;;0.22;0.22;;;;;;;;;;5032368;28;20045;-74
2024/01/28 01:17:50;;;;;;;0.00;0.00;;;;;;;;;;5032340;28;20065;-74
2024/01/28 01:20:17;;;;;;;0.00;0.00;;;;;;;;;;5032262;28;20042;-73
2024/01/28 01:22:45;;;;;;;0.35;0.35;;;;;;;;;;5032126;28;20045;-74
2024/01/28 01:25:14;;;;;;;0.03;0.03;;;;;;;;;;5032379;28;20049;-74
2024/01/28 01:27:41;;;;;;;0.00;0.00;;;;;;;;;;5031009;28;20037;-74
2024/01/28 01:30:09;;;;;;;0.20;0.20;;;;;;;;;;5031953;28;20041;-74
2024/01/28 01:32:40;;;;;;;0.50;0.50;;;;;;;;;;5032278;28;20041;-74
2024/01/28 01:35:08;;;;;;;0.47;0.47;;;;;;;;;;5032181;28;20364;-74
2024/01/28 01:37:36;;;;;;;0.57;0.57;;;;;;;;;;5030871;28;20491;-74
2024/01/28 01:40:06;;;;;;;0.10;0.10;;;;;;;;;;5031884;28;20637;-73
2024/01/28 01:42:33;;;;;;;0.57;0.57;;;;;;;;;;5032176;28;20111;-74
2024/01/28 01:45:02;;;;;;;2.08;1.20;;;;;;;;;;5032141;28;20479;-74
2024/01/28 01:47:29;;;;;;;0.00;0.00;;;;;;;;;;5033173;28;20045;-74
2024/01/28 01:49:57;;;;;;;0.00;0.00;;;;;;;;;;5035749;28;20510;-74
2024/01/28 01:52:26;;;;;;;0.93;0.90;;;;;;;;;;5034581;28;20060;-73
2024/01/28 01:54:54;;;;;;;2.45;1.00;;;;;;;;;;5035795;28;20041;-74
2024/01/28 01:57:21;;;;;;;2.15;1.77;;;;;;;;;;5035659;28;20128;-74
2024/01/28 01:59:49;;;;;;;0.00;0.00;;;;;;;;;;5035987;28;20399;-74
2024/01/28 02:02:17;;;;;;;0.00;0.00;;;;;;;;;;5035628;28;20498;-73
2024/01/28 02:04:45;;;;;;;0.00;0.00;;;;;;;;;;5035601;28;20049;-74
2024/01/28 02:07:12;;;;;;;0.73;0.73;;;;;;;;;;5035536;28;20037;-73
2024/01/28 02:09:40;;;;;;;0.30;0.30;;;;;;;;;;5034115;28;20048;-74
2024/01/28 02:12:08;;;;;;;1.00;0.57;;;;;;;;;;5035435;28;20042;-74
2024/01/28 02:14:36;;;;;;;0.00;0.00;;;;;;;;;;5035801;28;20398;-74
2024/01/28 02:17:03;;;;;;;1.02;0.65;;;;;;;;;;5035283;28;20080;-74
2024/01/28 02:19:31;;;;;;;0.00;0.00;;;;;;;;;;5035261;28;20056;-74
2024/01/28 02:21:59;;;;;;;0.40;0.40;;;;;;;;;;5035173;28;20084;-74
2024/01/28 02:24:26;;;;;;;0.15;0.15;;;;;;;;;;5035107;28;20495;-74
2024/01/28 02:26:54;;;;;;;0.08;0.08;;;;;;;;;;5035521;28;20052;-74
2024/01/28 02:29:21;;;;;;;1.25;1.20;;;;;;;;;;5035082;28;20040;-74
2024/01/28 02:31:49;;;;;;;0.17;0.17;;;;;;;;;;5035088;28;20033;-74
2024/01/28 02:34:17;;;;;;;0.28;0.25;;;;;;;;;;5035048;28;20045;-74
2024/01/28 02:36:44;;;;;;;0.00;0.00;;;;;;;;;;5034958;28;20045;-74
2024/01/28 02:39:12;;;;;;;0.00;0.00;;;;;;;;;;5033381;28;20049;-74
2024/01/28 02:41:41;;;;;;;0.10;0.10;;;;;;;;;;5034831;28;20037;-74
2024/01/28 02:44:09;;;;;;;0.00;0.00;;;;;;;;;;5035018;28;20072;-74
2024/01/28 02:46:36;;;;;;;0.38;0.30;;;;;;;;;;5034657;28;20046;-74
2024/01/28 02:49:04;;;;;;;1.55;1.45;;;;;;;;;;5034743;28;20057;-74
2024/01/28 02:51:32;;;;;;;0.10;0.10;;;;;;;;;;5034648;28;20052;-74
2024/01/28 02:53:59;;;;;;;0.32;0.32;;;;;;;;;;5034770;28;20432;-74
2024/01/28 02:56:27;;;;;;;0.10;0.10;;;;;;;;;;5034426;28;20372;-74
2024/01/28 02:58:55;;;;;;;1.58;1.48;;;;;;;;;;5033614;28;20045;-74
2024/01/28 03:01:22;;;;;;;0.93;0.93;;;;;;;;;;5033213;28;20105;-74
2024/01/28 03:03:50;;;;;;;0.08;0.08;;;;;;;;;;5034580;28;20041;-74
2024/01/28 03:06:18;;;;;;;0.00;0.00;;;;;;;;;;5034399;28;20043;-74
2024/01/28 03:08:45;;;;;;;0.43;0.43;;;;;;;;;;5034308;28;20033;-74
2024/01/28 03:11:13;;;;;;;1.08;1.08;;;;;;;;;;5034665;28;20398;-73
2024/01/28 03:13:41;;;;;;;3.25;1.40;;;;;;;;;;5034126;28;20056;-73
2024/01/28 03:16:10;;;;;;;0.00;0.00;;;;;;;;;;5034318;28;20355;-73
2024/01/28 03:18:38;;;;;;;9.02;2.92;;;;;;;;;;5033869;28;20055;-73
2024/01/28 03:21:06;;;;;;;0.10;0.10;;;;;;;;;;5034012;28;20123;-73
2024/01/28 03:23:34;;;;;;;2.75;1.90;;;;;;;;;;5034126;28;20132;-74
2024/01/28 03:26:02;;;;;;;0.00;0.00;;;;;;;;;;5034042;28;20041;-73
2024/01/28 03:28:31;;;;;;;0.00;0.00;;;;;;;;;;5033962;28;20088;-73
2024/01/28 03:30:59;;;;;;;0.20;0.20;;;;;;;;;;5034001;28;20057;-73
2024/01/28 03:33:26;;;;;;;0.10;0.10;;;;;;;;;;5032647;28;20042;-74
2024/01/28 03:35:54;;;;;;;0.00;0.00;;;;;;;;;;5033772;28;20550;-73
2024/01/28 03:38:23;;;;;;;0.00;0.00;;;;;;;;;;5033950;28;20126;-73
2024/01/28 03:40:50;;;;;;;0.00;0.00;;;;;;;;;;5033268;28;20056;-73
2024/01/28 03:43:18;;;;;;;0.57;0.57;;;;;;;;;;5033665;28;20044;-73
2024/01/28 03:45:45;;;;;;;0.25;0.25;;;;;;;;;;5033590;28;20072;-73
2024/01/28 03:48:13;;;;;;;0.17;0.17;;;;;;;;;;5033254;28;20033;-73
2024/01/28 03:50:41;;;;;;;0.17;0.17;;;;;;;;;;5033473;28;20042;-73
2024/01/28 03:53:09;;;;;;;0.00;0.00;;;;;;;;;;5032272;28;20065;-74
2024/01/28 03:55:36;;;;;;;0.65;0.65;;;;;;;;;;5033373;28;20040;-74
2024/01/28 03:58:04;;;;;;;0.00;0.00;;;;;;;;;;5032091;28;20041;-74
2024/01/28 04:00:33;;;;;;;0.73;0.73;;;;;;;;;;5033307;28;20117;-74
2024/01/28 04:03:01;;;;;;;3.65;1.17;;;;;;;;;;5033216;28;20095;-73
2024/01/28 04:05:28;;;;;;;0.80;0.80;;;;;;;;;;5032004;28;20045;-73
2024/01/28 04:07:56;;;;;;;0.00;0.00;;;;;;;;;;5031773;28;20076;-73
2024/01/28 04:10:24;;;;;;;0.70;0.70;;;;;;;;;;5033051;28;20065;-74
2024/01/28 04:12:51;;;;;;;0.43;0.43;;;;;;;;;;5033026;28;20418;-74
2024/01/28 04:15:19;;;;;;;5.60;0.52;;;;;;;;;;5031958;28;20037;-74
2024/01/28 04:17:47;;;;;;;0.63;0.63;;;;;;;;;;5033094;28;20499;-74
2024/01/28 04:20:14;;;;;;;0.60;0.60;;;;;;;;;;5032931;28;20038;-74
2024/01/28 04:22:42;;;;;;;0.28;0.28;;;;;;;;;;5033021;28;20049;-74
2024/01/28 04:25:10;;;;;;;0.00;0.00;;;;;;;;;;5032942;28;20037;-74
2024/01/28 04:27:37;;;;;;;0.82;0.82;;;;;;;;;;5032743;28;20053;-73
2024/01/28 04:30:06;;;;;;;0.65;0.65;;;;;;;;;;5031560;28;20044;-74
2024/01/28 04:32:34;;;;;;;0.00;0.00;;;;;;;;;;5032553;28;20076;-73
2024/01/28 04:35:02;;;;;;;0.50;0.50;;;;;;;;;;5032721;28;20045;-73
2024/01/28 04:37:30;;;;;;;0.88;0.80;;;;;;;;;;5032778;28;20075;-74
2024/01/28 04:39:58;;;;;;;0.20;0.20;;;;;;;;;;5032318;28;20049;-73
2024/01/28 04:42:26;;;;;;;0.10;0.10;;;;;;;;;;5032468;28;20045;-73
2024/01/28 04:44:53;;;;;;;0.45;0.43;;;;;;;;;;5032408;28;20050;-74
2024/01/28 04:47:21;;;;;;;0.43;0.43;;;;;;;;;;5032567;28;20076;-73
2024/01/28 04:49:48;;;;;;;0.40;0.40;;;;;;;;;;5032291;28;20112;-73
2024/01/28 04:52:16;;;;;;;0.00;0.00;;;;;;;;;;5032521;28;20050;-74
2024/01/28 04:54:44;;;;;;;0.05;0.05;;;;;;;;;;5032400;28;20113;-73
2024/01/28 04:57:12;;;;;;;0.10;0.10;;;;;;;;;;5031109;28;20046;-73
2024/01/28 04:59:39;;;;;;;1.17;1.02;;;;;;;;;;5031557;28;20446;-73
2024/01/28 05:02:07;;;;;;;0.22;0.22;;;;;;;;;;5032397;28;20120;-73
2024/01/28 05:04:34;;;;;;;0.00;0.00;;;;;;;;;;5032444;28;20037;-73
2024/01/28 05:07:02;;;;;;;0.40;0.40;;;;;;;;;;5032400;28;20364;-73
2024/01/28 05:09:31;;;;;;;0.63;0.63;;;;;;;;;;5031169;28;20050;-73
2024/01/28 05:11:59;;;;;;;0.30;0.30;;;;;;;;;;5032303;28;20046;-73
2024/01/28 05:14:27;;;;;;;0.03;0.03;;;;;;;;;;5032469;28;20053;-73
2024/01/28 05:16:54;;;;;;;0.20;0.20;;;;;;;;;;5032330;28;20060;-73
2024/01/28 05:19:22;;;;;;;0.00;0.00;;;;;;;;;;5030969;28;20474;-73
2024/01/28 05:21:50;;;;;;;0.00;0.00;;;;;;;;;;5033479;28;20448;-73
2024/01/28 05:24:18;;;;;;;0.20;0.20;;;;;;;;;;5036649;28;20083;-73
2024/01/28 05:26:46;;;;;;;0.08;0.08;;;;;;;;;;5036216;28;20099;-73
2024/01/28 05:29:14;;;;;;;3.50;2.83;;;;;;;;;;5035362;28;20110;-73
2024/01/28 05:31:42;;;;;;;1.13;0.47;;;;;;;;;;5036122;28;20041;-73
2024/01/28 05:34:10;;;;;;;0.22;0.22;;;;;;;;;;5036194;28;20043;-73
2024/01/28 05:36:37;;;;;;;0.38;0.38;;;;;;;;;;5036055;28;20047;-73
2024/01/28 05:39:05;;;;;;;0.15;0.15;;;;;;;;;;5034695;28;20041;-73
2024/01/28 05:41:32;;;;;;;0.00;0.00;;;;;;;;;;5035701;28;20049;-73
2024/01/28 05:44:00;;;;;;;0.85;0.85;;;;;;;;;;5035950;28;20034;-73
2024/01/28 05:46:28;;;;;;;1.20;1.10;;;;;;;;;;5035691;28;20049;-73
2024/01/28 05:48:55;;;;;;;0.00;0.00;;;;;;;;;;5036110;28;20497;-73
2024/01/28 05:51:25;;;;;;;0.95;0.90;;;;;;;;;;5034731;28;20037;-73
2024/01/28 05:53:53;;;;;;;0.10;0.10;;;;;;;;;;5035905;28;20116;-73
2024/01/28 05:56:21;;;;;;;0.05;0.05;;;;;;;;;;5035835;28;20041;-73
2024/01/28 05:58:49;;;;;;;0.22;0.22;;;;;;;;;;5035656;28;20479;-73
2024/01/28 06:01:17;;;;;;;0.20;0.20;;;;;;;;;;5035408;28;20049;-73
2024/01/28 06:03:44;;;;;;;1.65;1.55;;;;;;;;;;5034634;28;20045;-72
2024/01/28 06:06:12;;;;;;;1.25;0.25;;;;;;;;;;5035427;28;20095;-73
2024/01/28 06:08:41;;;;;;;0.63;0.52;;;;;;;;;;5035484;28;20041;-73
2024/01/28 06:11:09;;;;;;;2.17;1.48;;;;;;;;;;5035582;28;20051;-72
2024/01/28 06:13:37;;;;;;;3.03;1.55;;;;;;;;;;5035817;28;20046;-72
2024/01/28 06:16:06;;;;;;;0.00;0.00;;;;;;;;;;5035325;28;20045;-73
2024/01/28 06:18:35;;;;;;;0.85;0.85;;;;;;;;;;5035221;28;20037;-73
2024/01/28 06:21:03;;;;;;;0.10;0.10;;;;;;;;;;5035161;28;20129;-73
2024/01/28 06:23:30;;;;;;;0.77;0.77;;;;;;;;;;5034007;28;20438;-73
2024/01/28 06:25:58;;;;;;;2.17;1.58;;;;;;;;;;5035109;28;20096;-73
2024/01/28 06:28:25;;;;;;;2.75;1.98;;;;;;;;;;5033909;28;20042;-73
2024/01/28 06:30:53;;;;;;;0.00;0.00;;;;;;;;;;5034990;28;20041;-73
2024/01/28 06:33:21;;;;;;;1.58;1.48;;;;;;;;;;5033652;28;20099;-73
2024/01/28 06:35:49;;;;;;;1.95;1.85;;;;;;;;;;5035157;28;20060;-73
2024/01/28 06:38:18;;;;;;;3.53;1.95;;;;;;;;;;5033466;28;20044;-73
2024/01/28 06:40:46;;;;;;;0.77;0.77;;;;;;;;;;5033576;28;20037;-74
2024/01/28 06:43:13;;;;;;;7.47;3.15;;;;;;;;;;5033581;28;20120;-73
2024/01/28 06:45:45;;;;;;;0.88;0.80;;;;;;;;;;5035108;28;20125;-75
2024/01/28 06:48:13;;;;;;;1.75;1.65;;;;;;;;;;5034758;28;20044;-73
2024/01/28 06:50:42;;;;;;;0.55;0.55;;;;;;;;;;5034902;28;20046;-73
2024/01/28 06:53:10;;;;;;;4.45;2.88;;;;;;;;;;5035115;28;20449;-73
2024/01/28 06:55:37;;;;;;;0.32;0.32;;;;;;;;;;5034828;28;20069;-73
2024/01/28 06:58:05;;;;;;;1.08;1.08;;;;;;;;;;5034410;28;20451;-75
2024/01/28 07:00:33;;;;;;;2.45;2.25;;;;;;;;;;5033476;28;20111;-73
2024/01/28 07:03:01;;;;;;;3.17;0.20;;;;;;;;;;5034692;28;20041;-74
2024/01/28 07:05:29;;;;;;;1.77;1.67;;;;;;;;;;5034253;28;20041;-74
2024/01/28 07:07:56;;;;;;;20.08;2.10;;;;;;;;;;5034464;28;20065;-74
2024/01/28 07:10:24;;;;;;;0.75;0.73;;;;;;;;;;5033756;28;20041;-74
2024/01/28 07:12:55;;;;;;;0.55;0.50;;;;;;;;;;5034543;28;20046;-74
2024/01/28 07:15:23;;;;;;;0.00;0.00;;;;;;;;;;5034425;28;20638;-74
2024/01/28 07:17:51;;;;;;;0.65;0.65;;;;;;;;;;5034241;28;20053;-74
2024/01/28 07:20:19;;;;;;;4.68;2.10;;;;;;;;;;5033207;28;20041;-74
2024/01/28 07:22:46;;;;;;;0.32;0.32;;;;;;;;;;5034219;28;20053;-74
2024/01/28 07:25:14;;;;;;;1.42;1.33;;;;;;;;;;5034050;28;20065;-75
2024/01/28 07:27:41;;;;;;;0.38;0.38;;;;;;;;;;5034215;28;20041;-74
2024/01/28 07:30:09;;;;;;;0.43;0.43;;;;;;;;;;5034166;28;20034;-74
2024/01/28 07:32:36;;;;;;;2.28;1.52;;;;;;;;;;5034009;28;20033;-74
2024/01/28 07:35:04;;;;;;;0.20;0.20;;;;;;;;;;5034254;28;20080;-74
2024/01/28 07:37:32;;;;;;;1.63;1.52;;;;;;;;;;5034131;28;20033;-74
2024/01/28 07:40:00;;;;;;;0.32;0.32;;;;;;;;;;5034066;28;20045;-75
2024/01/28 07:42:27;;;;;;;0.77;0.77;;;;;;;;;;5033764;28;20049;-74
2024/01/28 07:44:55;;;;;;;1.45;1.35;;;;;;;;;;5033038;28;20403;-74
2024/01/28 07:47:22;;;;;;;0.35;0.35;;;;;;;;;;5033780;28;20053;-76
2024/01/28 07:49:50;;;;;;;1.02;0.68;;;;;;;;;;5032491;28;20499;-74
2024/01/28 07:52:18;;;;;;;1.00;0.38;;;;;;;;;;5033833;28;20068;-75
2024/01/28 07:54:45;;;;;;;1.75;1.65;;;;;;;;;;5033607;28;20041;-65
2024/01/28 07:57:13;;;;;;;2.97;1.20;;;;;;;;;;5032214;28;20037;-65
2024/01/28 07:59:41;;;;;;;0.57;0.57;;;;;;;;;;5033433;28;20064;-65
2024/01/28 08:02:08;;;;;;;0.52;0.52;;;;;;;;;;5033321;28;20047;-66
2024/01/28 08:04:36;;;;;;;0.95;0.88;;;;;;;;;;5033378;28;20483;-66
2024/01/28 08:07:04;;;;;;;3.72;1.33;;;;;;;;;;5033302;28;20041;-66
2024/01/28 08:09:33;;;;;;;0.32;0.32;;;;;;;;;;5032860;28;20077;-66
2024/01/28 08:12:00;;;;;;;0.20;0.20;;;;;;;;;;5032457;28;20045;-66
2024/01/28 08:14:28;;;;;;;2.17;1.45;;;;;;;;;;5032450;28;20502;-65
2024/01/28 08:16:56;;;;;;;0.95;0.70;;;;;;;;;;5033444;28;20122;-65
2024/01/28 08:19:23;;;;;;;0.00;0.00;;;;;;;;;;5033082;28;20132;-65
2024/01/28 08:21:51;;;;;;;0.00;0.00;;;;;;;;;;5031896;28;20407;-65
2024/01/28 08:24:19;;;;;;;0.65;0.38;;;;;;;;;;5032744;28;20040;-65
2024/01/28 08:26:47;;;;;;;1.48;1.08;;;;;;;;;;5033016;28;20052;-65
2024/01/28 08:29:15;;;;;;;0.80;0.52;;;;;;;;;;5033009;28;20402;-64
2024/01/28 08:31:42;;;;;;;0.10;0.10;;;;;;;;;;5032902;28;20047;-65
2024/01/28 08:34:10;;;;;;;0.20;0.20;;;;;;;;;;5015371;28;20494;-65
2024/01/28 08:36:38;;;;;;;0.10;0.10;;;;;;;;;;5032915;28;20041;-65
2024/01/28 08:39:05;;;;;;;0.10;0.10;;;;;;;;;;5032843;28;20045;-65
2024/01/28 08:41:33;;;;;;;2.90;1.23;;;;;;;;;;5032119;28;20056;-65
2024/01/28 08:44:06;;;;;;;1.65;0.82;;;;;;;;;;5031550;28;20072;-66
2024/01/28 08:46:39;;;;;;;4.45;0.68;;;;;;;;;;5031460;28;20049;-65
2024/01/28 08:49:07;;;;;;;0.00;0.00;;;;;;;;;;5028132;28;20092;-65
2024/01/28 08:51:34;;;;;;;6.47;3.45;;;;;;;;;;5012295;28;20502;-67
2024/01/28 08:54:02;;;;;;;0.98;0.73;;;;;;;;;;5013522;28;20728;-68
2024/01/28 08:56:30;;;;;;;0.17;0.17;;;;;;;;;;5025812;28;20100;-67
2024/01/28 08:58:57;;;;;;;0.80;0.80;;;;;;;;;;5026664;28;20041;-67
2024/01/28 09:01:25;;;;;;;0.65;0.40;;;;;;;;;;5018487;28;20038;-66
2024/01/28 09:03:52;;;;;;;10.00;1.48;;;;;;;;;;5020947;28;20120;-66
2024/01/28 09:06:20;;;;;;;4.22;1.02;;;;;;;;;;5008766;28;20036;-66
2024/01/28 09:08:48;;;;;;;1.13;0.38;;;;;;;;;;5009939;28;20096;-66
2024/01/28 09:11:17;;;;;;;0.25;0.10;;;;;;;;;;5009071;28;20042;-66
2024/01/28 09:13:46;;;;;;;2.28;1.50;;;;;;;;;;5007493;28;20038;-67
2024/01/28 09:16:14;;;;;;;0.00;0.00;;;;;;;;;;5006587;28;20044;-67
2024/01/28 09:18:42;;;;;;;2.28;0.52;;;;;;;;;;5017078;28;20049;-66
2024/01/28 09:21:10;;;;;;;0.15;0.15;;;;;;;;;;5016536;28;20806;-66
2024/01/28 09:23:38;;;;;;;2.30;1.48;;;;;;;;;;5016006;28;20050;-66
2024/01/28 09:26:05;;;;;;;0.65;0.65;;;;;;;;;;5010826;28;20046;-67
2024/01/28 09:28:33;;;;;;;3.25;2.80;;;;;;;;;;5015201;28;20503;-66
2024/01/28 09:31:01;;;;;;;0.95;0.57;;;;;;;;;;5026669;28;20114;-66
2024/01/28 09:33:28;;;;;;;0.00;0.00;;;;;;;;;;5026845;28;20045;-67
2024/01/28 09:35:56;;;;;;;0.88;0.88;;;;;;;;;;5027190;28;20049;-66
2024/01/28 09:38:24;;;;;;;1.05;1.05;;;;;;;;;;5026812;28;20077;-66
2024/01/28 09:40:52;;;;;;;0.22;0.22;;;;;;;;;;5042246;28;20056;-64
2024/01/28 09:43:29;;;;;;;0.30;0.28;;;;;;;;;;5026137;28;20041;-63
2024/01/28 09:45:58;;;;;;;17.08;3.50;;;;;;;;;;5027143;28;20521;-65
2024/01/28 09:48:25;;;;;;;2.47;1.83;;;;;;;;;;5026682;28;20083;-65
2024/01/28 09:50:53;;;;;;;1.15;1.15;;;;;;;;;;5026831;28;20095;-63
2024/01/28 09:53:22;;;;;;;0.93;0.93;;;;;;;;;;5026665;28;20044;-64
2024/01/28 09:55:50;;;;;;;2.42;0.45;;;;;;;;;;5041728;28;20694;-63
2024/01/28 09:58:17;;;;;;;1.35;1.05;;;;;;;;;;5026646;28;20113;-62
2024/01/28 10:00:46;;;;;;;0.00;0.00;;;;;;;;;;5026766;28;20127;-62
2024/01/28 10:03:13;;;;;;;0.10;0.10;;;;;;;;;;5026485;28;20045;-62
2024/01/28 10:05:41;;;;;;;4.00;1.80;;;;;;;;;;5020868;28;20295;-61
2024/01/28 10:08:09;;;;;;;0.45;0.45;;;;;;;;;;5013917;28;20051;-62
2024/01/28 10:10:37;;;;;;;0.43;0.43;;;;;;;;;;5022589;28;20034;-62
2024/01/28 10:13:05;;;;;;;0.32;0.28;;;;;;;;;;5016873;28;20120;-62
2024/01/28 10:15:32;;;;;;;0.00;0.00;;;;;;;;;;5015167;28;20049;-62
2024/01/28 10:18:00;;;;;;;0.73;0.60;;;;;;;;;;5016933;28;20484;-62
2024/01/28 10:20:30;;;;;;;0.10;0.10;;;;;;;;;;5029630;28;20088;-62
2024/01/28 10:22:58;;;;;;;0.30;0.20;;;;;;;;;;5021616;28;20112;-62
2024/01/28 10:25:26;;;;;;;0.22;0.22;;;;;;;;;;5011867;28;20052;-62
2024/01/28 10:27:54;;;;;;;1.27;0.93;;;;;;;;;;5016103;28;20050;-62
2024/01/28 10:30:22;;;;;;;0.60;0.60;;;;;;;;;;5022931;28;20067;-62
2024/01/28 10:32:50;;;;;;;0.10;0.10;;;;;;;;;;5019016;28;20049;-62
2024/01/28 10:35:25;;;;;;;0.43;0.43;;;;;;;;;;5019344;28;20041;-63
2024/01/28 10:37:53;;;;;;;0.10;0.10;;;;;;;;;;5019242;28;20057;-63
2024/01/28 10:40:23;;;;;;;0.00;0.00;;;;;;;;;;5018184;28;20621;-63
2024/01/28 10:42:54;;;;;;;0.80;0.52;;;;;;;;;;5024991;28;20417;-63
2024/01/28 10:45:25;;;;;;;0.43;0.43;;;;;;;;;;5028931;28;20128;-62
2024/01/28 10:47:54;;;;;;;2.30;0.52;;;;;;;;;;5015578;28;20659;-62
2024/01/28 10:50:25;;;;;;;1.13;0.80;;;;;;;;;;5013874;28;20049;-62
2024/01/28 10:52:53;;;;;;;0.00;0.00;;;;;;;;;;5023643;28;20045;-63
2024/01/28 10:55:22;;;;;;;0.95;0.32;;;;;;;;;;5020348;28;20483;-62
2024/01/28 10:57:50;;;;;;;0.73;0.73;;;;;;;;;;5008258;28;20589;-62
2024/01/28 11:00:20;;;;;;;0.17;0.17;;;;;;;;;;5008524;28;20033;-62
2024/01/28 11:02:49;;;;;;;0.98;0.98;;;;;;;;;;5028108;28;20056;-63
2024/01/28 11:05:18;;;;;;;0.20;0.20;;;;;;;;;;5029102;28;20044;-63
2024/01/28 11:07:47;;;;;;;0.05;0.05;;;;;;;;;;5044273;28;20081;-63
2024/01/28 11:10:18;;;;;;;1.23;1.13;;;;;;;;;;5029129;28;20041;-63
2024/01/28 11:12:45;;;;;;;2.65;1.90;;;;;;;;;;5029073;28;20045;-63
2024/01/28 11:15:13;;;;;;;0.47;0.45;;;;;;;;;;5029069;28;20144;-63
2024/01/28 11:17:44;;;;;;;0.47;0.47;;;;;;;;;;5043909;28;20583;-61
2024/01/28 11:20:16;;;;;;;0.90;0.65;;;;;;;;;;5027688;28;20073;-62
2024/01/28 11:22:51;;;;;;;0.10;0.10;;;;;;;;;;5043885;28;20052;-62
2024/01/28 11:25:28;;;;;;;1.53;1.30;;;;;;;;;;5028891;28;20041;-62
2024/01/28 11:28:00;;;;;;;0.80;0.77;;;;;;;;;;5028800;28;20291;-62
2024/01/28 11:30:29;;;;;;;1.92;1.50;;;;;;;;;;5028408;28;20045;-62
2024/01/28 11:32:57;;;;;;;0.20;0.20;;;;;;;;;;5028598;28;20045;-62
2024/01/28 11:35:25;;;;;;;2.03;1.65;;;;;;;;;;5021117;28;20538;-62
2024/01/28 11:37:56;;;;;;;0.25;0.20;;;;;;;;;;5018741;28;20514;-62
2024/01/28 11:40:28;;;;;;;0.00;0.00;;;;;;;;;;5023920;28;20038;-62
2024/01/28 11:42:56;;;;;;;1.85;1.13;;;;;;;;;;5022600;28;20458;-62
2024/01/28 11:45:25;;;;;;;1.17;1.10;;;;;;;;;;5027016;28;20069;-62
2024/01/28 11:47:53;;;;;;;2.58;1.42;;;;;;;;;;5025586;28;20133;-62
2024/01/28 11:50:20;;;;;;;0.20;0.20;;;;;;;;;;5007702;28;20038;-62
2024/01/28 11:52:48;;;;;;;1.88;1.23;;;;;;;;;;5008232;28;20046;-63
2024/01/28 11:55:17;;;;;;;0.73;0.73;;;;;;;;;;5008320;28;20044;-62
2024/01/28 11:57:45;;;;;;;0.82;0.73;;;;;;;;;;5007736;28;20065;-62
2024/01/28 12:00:14;;;;;;;4.15;3.85;;;;;;;;;;5008413;28;20033;-62
2024/01/28 12:02:42;;;;;;;4.38;2.15;;;;;;;;;;5016151;28;20495;-62
2024/01/28 12:05:11;;;;;;;5.55;2.78;;;;;;;;;;5028008;28;20056;-62
2024/01/28 12:07:39;;;;;;;3.05;1.30;;;;;;;;;;5042982;28;20037;-61
2024/01/28 12:10:09;;;;;;;2.50;2.03;;;;;;;;;;5028308;28;20049;-62
2024/01/28 12:12:37;;;;;;;1.20;1.15;;;;;;;;;;5043419;28;20499;-62
2024/01/28 12:15:07;;;;;;;0.22;0.10;;;;;;;;;;5028024;28;20092;-62
2024/01/28 12:17:38;;;;;;;0.85;0.75;;;;;;;;;;5027726;28;20045;-62
2024/01/28 12:20:08;;;;;;;1.45;0.65;;;;;;;;;;5042787;28;20045;-62
2024/01/28 12:22:37;;;;;;;0.63;0.45;;;;;;;;;;5027676;28;20056;-62
2024/01/28 12:25:11;;;;;;;0.43;0.43;;;;;;;;;;5023457;28;20038;-62
2024/01/28 12:27:40;;;;;;;4.82;1.48;;;;;;;;;;5011600;28;20042;-61
2024/01/28 12:30:09;;;;;;;0.98;0.95;;;;;;;;;;5025571;28;20589;-63
2024/01/28 12:32:41;;;;;;;1.83;1.35;;;;;;;;;;5009873;28;20441;-62
2024/01/28 12:35:09;;;;;;;1.08;0.95;;;;;;;;;;5007923;28;20506;-62
2024/01/28 12:37:38;;;;;;;0.65;0.65;;;;;;;;;;5006530;28;20136;-63
2024/01/28 12:40:10;;;;;;;1.27;0.95;;;;;;;;;;5007736;28;20048;-62
2024/01/28 12:42:40;;;;;;;2.28;1.48;;;;;;;;;;5007357;28;20134;-62
2024/01/28 12:45:08;;;;;;;2.20;1.52;;;;;;;;;;5007687;28;20105;-62
2024/01/28 12:47:40;;;;;;;2.10;1.55;;;;;;;;;;5007890;28;20045;-62
2024/01/28 12:50:09;;;;;;;2.67;1.40;;;;;;;;;;5020565;28;20667;-62
2024/01/28 12:52:37;;;;;;;2.63;1.40;;;;;;;;;;5007526;28;20073;-63
2024/01/28 12:55:05;;;;;;;0.15;0.15;;;;;;;;;;5006957;28;20165;-62
2024/01/28 12:57:35;;;;;;;0.95;0.88;;;;;;;;;;5013532;28;20124;-62
2024/01/28 13:00:06;;;;;;;0.90;0.15;;;;;;;;;;5019297;28;20073;-62
2024/01/28 13:02:34;;;;;;;0.38;0.35;;;;;;;;;;5019811;28;20046;-63
2024/01/28 13:05:02;;;;;;;5.18;1.23;;;;;;;;;;5013299;28;20030;-62
2024/01/28 13:07:31;;;;;;;0.98;0.98;;;;;;;;;;5015259;28;20041;-63
2024/01/28 13:09:58;;;;;;;1.23;1.13;;;;;;;;;;5026673;28;20099;-62
2024/01/28 13:12:32;;;;;;;0.10;0.10;;;;;;;;;;5026792;28;20478;-63
2024/01/28 13:15:00;;;;;;;1.15;1.10;;;;;;;;;;5026125;28;20076;-61
2024/01/28 13:17:28;;;;;;;5.88;2.67;;;;;;;;;;5034528;28;20128;-64
2024/01/28 13:19:55;;;;;;;0.55;0.55;;;;;;;;;;5025653;28;20052;-64
2024/01/28 13:22:23;;;;;;;0.25;0.25;;;;;;;;;;5015176;28;20049;-60
2024/01/28 13:24:52;;;;;;;2.05;1.42;;;;;;;;;;5012754;28;20041;-61
2024/01/28 13:27:21;;;;;;;0.38;0.25;;;;;;;;;;5024205;28;20041;-63
2024/01/28 13:29:49;;;;;;;0.03;0.03;;;;;;;;;;5023698;28;20294;-63
2024/01/28 13:32:19;;;;;;;0.28;0.28;;;;;;;;;;5024359;28;20032;-63
2024/01/28 13:34:47;;;;;;;1.17;0.70;;;;;;;;;;5016112;28;20052;-63
2024/01/28 13:37:18;;;;;;;0.75;0.75;;;;;;;;;;5023859;28;20053;-63
2024/01/28 13:39:45;;;;;;;0.00;0.00;;;;;;;;;;5009458;28;20052;-62
2024/01/28 13:42:13;;;;;;;1.13;0.20;;;;;;;;;;5022957;28;20037;-62
2024/01/28 13:44:44;;;;;;;0.00;0.00;;;;;;;;;;5011854;28;20137;-62
2024/01/28 13:47:12;;;;;;;1.35;0.93;;;;;;;;;;5019786;28;20038;-62
2024/01/28 13:49:39;;;;;;;1.17;0.50;;;;;;;;;;5023291;28;20546;-63
2024/01/28 13:52:07;;;;;;;0.80;0.80;;;;;;;;;;5023844;28;20037;-63
2024/01/28 13:54:35;;;;;;;0.20;0.20;;;;;;;;;;5026995;28;20068;-62
2024/01/28 13:57:02;;;;;;;0.57;0.45;;;;;;;;;;5026526;28;20045;-63
2024/01/28 13:59:30;;;;;;;0.57;0.17;;;;;;;;;;5028493;28;20574;-62
2024/01/28 14:02:00;;;;;;;0.00;0.00;;;;;;;;;;5025412;28;20042;-62
2024/01/28 14:04:28;;;;;;;2.30;0.85;;;;;;;;;;5029226;28;20114;-63
2024/01/28 14:06:56;;;;;;;1.83;1.33;;;;;;;;;;5029441;28;20060;-62
2024/01/28 14:09:24;;;;;;;0.55;0.55;;;;;;;;;;5028320;28;20045;-62
2024/01/28 14:11:51;;;;;;;1.55;1.35;;;;;;;;;;5012796;28;20080;-63
2024/01/28 14:14:19;;;;;;;0.10;0.10;;;;;;;;;;5014155;28;20057;-63
2024/01/28 14:16:47;;;;;;;0.00;0.00;;;;;;;;;;5013584;28;20391;-61
2024/01/28 14:19:15;;;;;;;0.10;0.10;;;;;;;;;;5015163;28;20129;-62
2024/01/28 14:21:43;;;;;;;0.38;0.38;;;;;;;;;;5016061;28;20064;-62
2024/01/28 14:24:10;;;;;;;1.95;1.85;;;;;;;;;;5015662;28;20042;-61
2024/01/28 14:26:38;;;;;;;0.13;0.13;;;;;;;;;;5026952;28;20113;-62
2024/01/28 14:29:06;;;;;;;0.00;0.00;;;;;;;;;;5014507;28;20056;-62
2024/01/28 14:31:33;;;;;;;0.00;0.00;;;;;;;;;;5018349;28;20514;-63
2024/01/28 14:34:01;;;;;;;0.43;0.43;;;;;;;;;;5013433;28;20038;-62
2024/01/28 14:36:30;;;;;;;0.00;0.00;;;;;;;;;;5019021;28;20041;-62
2024/01/28 14:38:58;;;;;;;0.00;0.00;;;;;;;;;;5042540;28;20490;-63
2024/01/28 14:41:25;;;;;;;1.10;1.10;;;;;;;;;;5026320;28;20049;-62
2024/01/28 14:43:53;;;;;;;1.65;1.23;;;;;;;;;;5020473;28;20038;-62
2024/01/28 14:46:21;;;;;;;0.45;0.45;;;;;;;;;;5025427;28;20048;-62
2024/01/28 14:48:49;;;;;;;0.85;0.85;;;;;;;;;;5021843;28;20042;-62